createdAt,value
2024-02-13T00:00:34.187Z,5.30
2024-02-13T00:03:01.374Z,5.55
2024-02-13T00:05:28.524Z,4.70
2024-02-13T00:07:55.838Z,5.80
2024-02-13T00:10:22.778Z,4.70
2024-02-13T00:12:49.788Z,5.25
2024-02-13T00:15:21.251Z,3.83
2024-02-13T00:17:52.506Z,2.35
2024-02-13T00:20:19.799Z,3.85
2024-02-13T00:22:47.568Z,4.13
2024-02-13T00:25:14.689Z,5.05
2024-02-13T00:27:41.775Z,4.00
2024-02-13T00:30:10.536Z,4.13
2024-02-13T00:32:40.832Z,2.78
2024-02-13T00:35:09.966Z,2.90
2024-02-13T00:37:40.640Z,3.40
2024-02-13T00:40:11.203Z,3.33
2024-02-13T00:42:39.028Z,2.93
2024-02-13T00:45:08.683Z,3.67
2024-02-13T00:47:36.116Z,3.42
2024-02-13T00:50:04.062Z,2.72
2024-02-13T00:52:31.091Z,2.15
2024-02-13T00:54:59.297Z,1.83
2024-02-13T00:57:26.598Z,2.03
2024-02-13T00:59:54.218Z,2.88
2024-02-13T01:02:21.410Z,3.25
2024-02-13T01:04:49.311Z,2.80
2024-02-13T01:07:18.921Z,3.72
2024-02-13T01:09:46.184Z,3.60
2024-02-13T01:12:13.184Z,3.50
2024-02-13T01:14:40.309Z,4.50
2024-02-13T01:17:07.493Z,4.05
2024-02-13T01:19:34.665Z,5.28
2024-02-13T01:22:02.270Z,5.28
2024-02-13T01:24:30.549Z,5.78
2024-02-13T01:26:59.348Z,5.55
2024-02-13T01:29:26.544Z,5.95
2024-02-13T01:31:54.922Z,6.00
2024-02-13T01:34:22.050Z,5.80
2024-02-13T01:36:49.551Z,6.07
2024-02-13T01:39:16.503Z,6.53
2024-02-13T01:41:43.956Z,6.47
2024-02-13T01:44:10.983Z,6.40
2024-02-13T01:46:39.769Z,6.63
2024-02-13T01:49:08.975Z,7.40
2024-02-13T01:51:38.510Z,7.55
2024-02-13T01:54:11.401Z,7.75
2024-02-13T01:59:08.350Z,8.90
2024-02-13T02:01:37.195Z,7.22
2024-02-13T02:04:07.230Z,6.65
2024-02-13T02:06:36.125Z,7.13
2024-02-13T02:09:07.081Z,7.38
2024-02-13T02:11:35.232Z,6.63
2024-02-13T02:14:02.613Z,7.35
2024-02-13T02:16:29.804Z,6.15
2024-02-13T02:18:57.121Z,5.93
2024-02-13T02:21:24.261Z,6.30
2024-02-13T02:23:51.444Z,7.30
2024-02-13T02:26:18.448Z,7.40
2024-02-13T02:28:47.125Z,6.25
2024-02-13T02:31:17.004Z,6.28
2024-02-13T02:33:46.425Z,4.47
2024-02-13T02:36:13.379Z,3.95
2024-02-13T02:38:40.400Z,4.93
2024-02-13T02:41:10.420Z,4.95
2024-02-13T02:43:42.541Z,5.07
2024-02-13T02:46:10.895Z,4.57
2024-02-13T02:48:39.001Z,4.50
2024-02-13T02:51:06.749Z,4.50
2024-02-13T02:53:33.946Z,5.10
2024-02-13T02:56:01.085Z,5.25
2024-02-13T02:58:28.204Z,4.80
2024-02-13T03:00:55.206Z,4.78
2024-02-13T03:03:23.117Z,3.35
2024-02-13T03:05:52.961Z,3.67
2024-02-13T03:08:20.641Z,4.15
2024-02-13T03:10:47.657Z,3.60
2024-02-13T03:13:15.441Z,3.83
2024-02-13T03:15:42.501Z,4.70
2024-02-13T03:18:11.059Z,3.90
2024-02-13T03:20:38.396Z,4.15
2024-02-13T03:23:05.455Z,3.55
2024-02-13T03:25:32.459Z,4.13
2024-02-13T03:27:59.448Z,4.95
2024-02-13T03:30:26.388Z,4.93
2024-02-13T03:32:53.717Z,5.70
2024-02-13T03:35:20.826Z,5.72
2024-02-13T03:37:47.786Z,5.63
2024-02-13T03:40:17.567Z,6.10
2024-02-13T03:42:47.558Z,5.35
2024-02-13T03:45:14.639Z,5.70
2024-02-13T03:47:41.696Z,6.18
2024-02-13T03:50:09.021Z,4.80
2024-02-13T03:52:37.222Z,5.10
2024-02-13T03:55:05.954Z,5.13
2024-02-13T03:57:33.232Z,4.47
2024-02-13T04:00:01.733Z,5.10
2024-02-13T04:02:29.462Z,6.38
2024-02-13T04:04:56.493Z,5.45
2024-02-13T04:07:24.330Z,4.82
2024-02-13T04:09:51.440Z,5.32
2024-02-13T04:12:18.369Z,5.60
2024-02-13T04:14:45.472Z,4.97
2024-02-13T04:17:12.483Z,5.43
2024-02-13T04:19:42.374Z,4.82
2024-02-13T04:22:09.728Z,5.55
2024-02-13T04:24:36.778Z,4.18
2024-02-13T04:27:04.427Z,3.03
2024-02-13T04:29:31.916Z,2.38
2024-02-13T04:32:00.442Z,1.90
2024-02-13T04:34:30.769Z,2.00
2024-02-13T04:36:59.048Z,1.95
2024-02-13T04:39:26.064Z,1.98
2024-02-13T04:41:53.114Z,2.00
2024-02-13T04:44:21.503Z,2.45
2024-02-13T04:46:48.576Z,2.15
2024-02-13T04:49:15.802Z,2.60
2024-02-13T04:51:44.587Z,2.13
2024-02-13T04:54:11.575Z,2.03
2024-02-13T04:56:38.598Z,2.13
2024-02-13T04:59:08.845Z,2.50
2024-02-13T05:01:40.772Z,2.78
2024-02-13T05:04:16.974Z,2.75
2024-02-13T05:07:02.799Z,2.83
2024-02-13T05:09:29.808Z,3.38
2024-02-13T05:11:56.818Z,3.65
2024-02-13T05:14:23.973Z,4.40
2024-02-13T05:16:51.042Z,3.75
2024-02-13T05:19:18.040Z,2.45
2024-02-13T05:21:45.003Z,2.60
2024-02-13T05:24:12.002Z,2.72
2024-02-13T05:26:39.150Z,2.78
2024-02-13T05:29:06.365Z,3.97
2024-02-13T05:31:34.778Z,3.58
2024-02-13T05:34:01.912Z,3.88
2024-02-13T05:36:29.071Z,8.15
2024-02-13T05:38:56.884Z,11.00
2024-02-13T05:41:23.986Z,9.00
2024-02-13T05:43:52.937Z,10.70
2024-02-13T05:46:19.988Z,5.10
2024-02-13T05:48:47.001Z,4.28
2024-02-13T05:51:16.073Z,4.40
2024-02-13T05:53:43.997Z,4.78
2024-02-13T05:56:14.207Z,4.85
2024-02-13T06:01:14.276Z,4.30
2024-02-13T06:03:41.718Z,3.95
2024-02-13T06:06:09.223Z,2.95
2024-02-13T06:08:36.550Z,3.13
2024-02-13T06:11:06.107Z,3.33
2024-02-13T06:13:35.106Z,3.35
2024-02-13T06:16:02.193Z,3.47
2024-02-13T06:18:29.510Z,3.22
2024-02-13T06:20:56.728Z,3.08
2024-02-13T06:23:23.857Z,2.30
2024-02-13T06:25:50.800Z,4.82
2024-02-13T06:28:17.965Z,5.57
2024-02-13T06:30:46.333Z,5.93
2024-02-13T06:33:13.818Z,6.57
2024-02-13T06:35:41.191Z,7.20
2024-02-13T06:38:08.266Z,6.65
2024-02-13T06:40:35.561Z,5.88
2024-02-13T06:43:04.852Z,7.53
2024-02-13T06:45:32.213Z,18.33
2024-02-13T06:47:59.545Z,19.00
2024-02-13T06:50:26.615Z,12.65
2024-02-13T06:52:55.384Z,16.08
2024-02-13T06:55:22.992Z,30.50
2024-02-13T06:57:50.032Z,11.70
2024-02-13T07:00:17.845Z,7.65
2024-02-13T07:02:45.293Z,7.35
2024-02-13T07:05:13.820Z,9.05
2024-02-13T07:07:47.225Z,13.63
2024-02-13T07:10:17.592Z,13.18
2024-02-13T07:12:45.658Z,11.80
2024-02-13T07:15:13.471Z,10.43
2024-02-13T07:17:49.196Z,9.65
2024-02-13T07:20:24.948Z,9.63
2024-02-13T07:22:52.439Z,10.00
2024-02-13T07:25:19.734Z,8.10
2024-02-13T07:27:50.456Z,7.88
2024-02-13T07:30:18.023Z,8.13
2024-02-13T07:32:47.443Z,7.35
2024-02-13T07:35:16.075Z,7.45
2024-02-13T07:37:43.333Z,8.95
2024-02-13T07:40:11.317Z,7.80
2024-02-13T07:42:38.294Z,8.05
2024-02-13T07:45:06.405Z,9.23
2024-02-13T07:47:35.103Z,8.70
2024-02-13T07:50:02.253Z,7.20
2024-02-13T07:52:29.285Z,5.85
2024-02-13T07:54:56.473Z,5.20
2024-02-13T07:57:23.451Z,4.30
2024-02-13T07:59:57.202Z,4.13
2024-02-13T08:02:25.052Z,3.10
2024-02-13T08:04:53.033Z,2.92
2024-02-13T08:07:20.308Z,3.03
2024-02-13T08:09:47.551Z,3.00
2024-02-13T08:12:14.559Z,3.17
2024-02-13T08:14:41.658Z,2.75
2024-02-13T08:17:10.014Z,2.55
2024-02-13T08:19:39.395Z,2.15
2024-02-13T08:22:06.456Z,1.08
2024-02-13T08:24:34.420Z,1.27
2024-02-13T08:27:01.272Z,2.13
2024-02-13T08:29:30.571Z,1.30
2024-02-13T08:31:58.342Z,1.98
2024-02-13T08:34:25.841Z,0.98
2024-02-13T08:36:54.563Z,0.60
2024-02-13T08:39:21.944Z,0.88
2024-02-13T08:41:49.103Z,0.55
2024-02-13T08:44:17.921Z,0.43
2024-02-13T08:46:45.270Z,0.55
2024-02-13T08:49:13.704Z,0.50
2024-02-13T08:51:41.415Z,0.45
2024-02-13T08:54:12.513Z,0.68
2024-02-13T08:56:40.839Z,0.63
2024-02-13T08:59:09.314Z,0.20
2024-02-13T09:01:36.491Z,0.57
2024-02-13T09:04:03.806Z,0.43
2024-02-13T09:06:33.517Z,0.70
2024-02-13T09:09:03.165Z,0.30
2024-02-13T09:11:32.535Z,0.77
2024-02-13T09:13:59.797Z,0.68
2024-02-13T09:16:27.140Z,0.50
2024-02-13T09:18:57.196Z,0.50
2024-02-13T09:21:25.084Z,0.20
2024-02-13T09:23:52.499Z,0.55
2024-02-13T09:26:19.876Z,0.43
2024-02-13T09:28:46.873Z,0.55
2024-02-13T09:31:13.949Z,0.70
2024-02-13T09:33:41.720Z,0.60
2024-02-13T09:36:09.822Z,0.60
2024-02-13T09:38:41.933Z,1.00
2024-02-13T09:41:11.250Z,1.00
2024-02-13T09:43:44.178Z,1.48
2024-02-13T09:46:16.126Z,1.35
2024-02-13T09:48:48.501Z,1.77
2024-02-13T09:51:18.906Z,1.90
2024-02-13T09:53:48.492Z,1.55
2024-02-13T09:56:16.366Z,1.42
2024-02-13T09:58:45.311Z,0.60
2024-02-13T10:01:12.304Z,0.60
2024-02-13T10:03:43.149Z,0.60
2024-02-13T10:06:12.004Z,0.45
2024-02-13T10:08:41.228Z,0.30
2024-02-13T10:11:10.366Z,0.20
2024-02-13T10:13:47.064Z,0.32
2024-02-13T10:16:25.199Z,0.38
2024-02-13T10:18:58.847Z,0.47
2024-02-13T10:21:27.850Z,0.50
2024-02-13T10:24:15.426Z,0.40
2024-02-13T10:26:43.078Z,0.40
2024-02-13T10:29:10.358Z,0.40
2024-02-13T10:31:39.581Z,0.65
2024-02-13T10:34:09.496Z,0.43
2024-02-13T10:36:38.107Z,0.30
2024-02-13T10:39:10.144Z,0.45
2024-02-13T10:41:43.315Z,0.40
2024-02-13T10:44:11.779Z,0.50
2024-02-13T10:46:41.790Z,0.30
2024-02-13T10:49:27.204Z,0.47
2024-02-13T10:51:55.008Z,0.25
2024-02-13T10:54:25.536Z,0.32
2024-02-13T10:56:54.025Z,0.30
2024-02-13T10:59:23.925Z,0.20
2024-02-13T11:01:55.470Z,0.20
2024-02-13T11:04:22.886Z,0.10
2024-02-13T11:06:50.864Z,0.30
2024-02-13T11:09:19.302Z,0.17
2024-02-13T11:11:46.800Z,0.25
2024-02-13T11:14:19.057Z,0.50
2024-02-13T11:17:02.208Z,0.40
2024-02-13T11:19:45.802Z,0.63
2024-02-13T11:22:16.415Z,0.35
2024-02-13T11:24:50.587Z,0.75
2024-02-13T11:27:27.204Z,0.90
2024-02-13T11:30:01.498Z,0.40
2024-02-13T11:32:41.159Z,0.40
2024-02-13T11:35:12.264Z,0.50
2024-02-13T11:37:43.419Z,0.10
2024-02-13T11:40:14.697Z,0.13
2024-02-13T11:42:43.055Z,0.13
2024-02-13T11:45:23.596Z,0.30
2024-02-13T11:47:50.789Z,0.30
2024-02-13T11:50:20.968Z,0.20
2024-02-13T11:52:49.323Z,0.10
2024-02-13T11:55:16.433Z,0.20
2024-02-13T11:57:46.629Z,0.10
2024-02-13T12:00:20.004Z,0.40
2024-02-13T12:02:50.937Z,0.15
2024-02-13T12:05:20.633Z,0.10
2024-02-13T12:07:48.265Z,0.10
2024-02-13T12:10:16.363Z,0.20
2024-02-13T12:12:43.864Z,0.10
2024-02-13T12:15:13.720Z,0.17
2024-02-13T12:17:41.260Z,0.20
2024-02-13T12:20:13.645Z,0.20
2024-02-13T12:22:45.811Z,0.30
2024-02-13T12:25:17.754Z,0.30
2024-02-13T12:27:44.843Z,0.28
2024-02-13T12:30:12.677Z,0.32
2024-02-13T12:32:39.980Z,0.32
2024-02-13T12:35:23.005Z,0.40
2024-02-13T12:37:53.233Z,0.30
2024-02-13T12:40:21.494Z,0.20
2024-02-13T12:42:48.548Z,0.70
2024-02-13T12:45:19.253Z,0.30
2024-02-13T12:47:46.923Z,0.50
2024-02-13T12:50:17.491Z,0.57
2024-02-13T12:52:44.743Z,0.30
2024-02-13T12:55:14.546Z,0.30
2024-02-13T12:57:42.029Z,0.20
2024-02-13T13:00:16.001Z,1.23
2024-02-13T13:02:44.903Z,0.95
2024-02-13T13:05:15.792Z,0.70
2024-02-13T13:07:47.367Z,0.63
2024-02-13T13:12:48.517Z,0.38
2024-02-13T13:15:19.927Z,0.52
2024-02-13T13:17:52.766Z,0.30
2024-02-13T13:20:20.209Z,0.20
2024-02-13T13:22:48.977Z,0.35
2024-02-13T13:25:25.317Z,0.52
2024-02-13T13:27:53.512Z,0.25
2024-02-13T13:30:21.537Z,0.40
2024-02-13T13:32:50.144Z,0.22
2024-02-13T13:35:21.457Z,0.40
2024-02-13T13:37:51.381Z,0.32
2024-02-13T13:40:18.314Z,0.30
2024-02-13T13:42:45.798Z,0.40
2024-02-13T13:45:16.973Z,0.32
2024-02-13T13:47:45.309Z,0.30
2024-02-13T13:50:18.962Z,0.20
2024-02-13T13:52:46.520Z,0.40
2024-02-13T13:55:14.180Z,0.50
2024-02-13T13:57:41.184Z,0.30
2024-02-13T14:00:14.575Z,0.20
2024-02-13T14:02:41.596Z,0.40
2024-02-13T14:05:08.591Z,0.30
2024-02-13T14:07:36.661Z,0.77
2024-02-13T14:10:04.099Z,0.20
2024-02-13T14:12:31.128Z,0.30
2024-02-13T14:14:58.681Z,0.30
2024-02-13T14:17:26.239Z,0.60
2024-02-13T14:19:54.894Z,0.20
2024-02-13T14:22:22.038Z,0.50
2024-02-13T14:24:49.018Z,0.40
2024-02-13T14:27:16.304Z,0.60
2024-02-13T14:29:44.089Z,0.60
2024-02-13T14:32:11.846Z,0.57
2024-02-13T14:34:38.952Z,0.75
2024-02-13T14:37:07.510Z,0.68
2024-02-13T14:39:34.954Z,0.68
2024-02-13T14:42:04.561Z,1.90
2024-02-13T14:44:31.745Z,0.68
2024-02-13T14:46:58.914Z,0.40
2024-02-13T14:51:55.095Z,0.50
2024-02-13T14:54:22.650Z,0.40
2024-02-13T14:56:50.976Z,0.32
2024-02-13T14:59:18.431Z,0.50
2024-02-13T15:01:46.353Z,0.50
2024-02-13T15:04:14.214Z,0.22
2024-02-13T15:06:41.400Z,0.40
2024-02-13T15:09:11.593Z,0.40
2024-02-13T15:11:39.208Z,0.70
2024-02-13T15:14:08.141Z,0.68
2024-02-13T15:16:35.316Z,0.73
2024-02-13T15:19:04.186Z,0.57
2024-02-13T15:21:31.262Z,0.32
2024-02-13T15:23:58.626Z,0.68
2024-02-13T15:26:26.415Z,0.50
2024-02-13T15:28:54.130Z,0.63
2024-02-13T15:31:22.143Z,1.45
2024-02-13T15:33:50.437Z,3.25
2024-02-13T15:36:32.996Z,6.28
2024-02-13T15:39:22.345Z,4.20
2024-02-13T15:42:07.774Z,2.13
2024-02-13T15:44:53.339Z,2.80
2024-02-13T15:47:22.022Z,2.25
2024-02-13T15:49:51.281Z,2.05
2024-02-13T15:52:18.773Z,2.20
2024-02-13T15:54:48.778Z,2.17
2024-02-13T15:57:16.086Z,2.92
2024-02-13T15:59:44.429Z,2.47
2024-02-13T16:02:11.969Z,2.78
2024-02-13T16:04:40.356Z,1.92
2024-02-13T16:07:11.546Z,1.42
2024-02-13T16:09:38.535Z,1.27
2024-02-13T16:12:06.123Z,1.45
2024-02-13T16:14:33.386Z,1.58
2024-02-13T16:17:00.898Z,1.40
2024-02-13T16:19:31.237Z,2.17
2024-02-13T16:21:58.875Z,2.85
2024-02-13T16:24:25.810Z,3.88
2024-02-13T16:26:54.638Z,2.90
2024-02-13T16:29:24.931Z,2.17
2024-02-13T16:31:54.644Z,2.22
2024-02-13T16:34:22.873Z,1.85
2024-02-13T16:36:49.985Z,3.40
2024-02-13T16:39:18.960Z,2.83
2024-02-13T16:41:50.338Z,3.92
2024-02-13T16:44:20.106Z,3.15
2024-02-13T16:46:49.613Z,4.70
2024-02-13T16:49:16.975Z,4.40
2024-02-13T16:51:44.112Z,4.60
2024-02-13T16:54:11.968Z,4.43
2024-02-13T16:56:39.171Z,4.22
2024-02-13T16:59:06.269Z,4.80
2024-02-13T17:01:33.440Z,5.70
2024-02-13T17:04:02.120Z,7.15
2024-02-13T17:06:32.292Z,5.90
2024-02-13T17:09:01.923Z,5.45
2024-02-13T17:11:29.238Z,8.60
2024-02-13T17:13:56.535Z,8.65
2024-02-13T17:16:23.516Z,8.18
2024-02-13T17:18:50.620Z,7.03
2024-02-13T17:21:17.995Z,6.70
2024-02-13T17:23:45.114Z,6.90
2024-02-13T17:26:17.702Z,7.30
2024-02-13T17:28:44.587Z,7.40
2024-02-13T17:31:11.458Z,6.93
2024-02-13T17:33:38.778Z,6.32
2024-02-13T17:36:06.296Z,6.63
2024-02-13T17:38:34.605Z,7.25
2024-02-13T17:41:02.950Z,6.22
2024-02-13T17:43:31.369Z,8.40
2024-02-13T17:45:58.314Z,9.23
2024-02-13T17:48:25.340Z,9.05
2024-02-13T17:50:52.346Z,9.63
2024-02-13T17:53:19.316Z,9.93
2024-02-13T17:55:46.201Z,11.98
2024-02-13T17:58:14.725Z,11.07
2024-02-13T18:00:45.102Z,11.63
2024-02-13T18:03:12.587Z,12.00
2024-02-13T18:05:40.129Z,9.82
2024-02-13T18:08:07.483Z,9.15
2024-02-13T18:10:34.672Z,8.48
2024-02-13T18:13:03.036Z,7.35
2024-02-13T18:15:30.089Z,8.68
2024-02-13T18:17:58.635Z,13.32
2024-02-13T18:20:28.106Z,16.30
2024-02-13T18:22:55.535Z,23.70
2024-02-13T18:25:23.036Z,12.37
2024-02-13T18:27:50.067Z,8.48
2024-02-13T18:30:17.629Z,9.93
2024-02-13T18:32:44.686Z,11.35
2024-02-13T18:35:12.138Z,10.15
2024-02-13T18:37:44.313Z,8.82
2024-02-13T18:40:13.622Z,8.90
2024-02-13T18:42:42.522Z,7.43
2024-02-13T18:45:15.354Z,7.28
2024-02-13T18:47:47.557Z,7.85
2024-02-13T18:50:15.127Z,7.32
2024-02-13T18:52:43.116Z,8.32
2024-02-13T18:55:12.106Z,9.35
2024-02-13T18:57:39.084Z,12.40
2024-02-13T19:00:08.288Z,9.88
2024-02-13T19:02:36.490Z,8.60
2024-02-13T19:05:04.619Z,9.00
2024-02-13T19:07:34.521Z,6.45
2024-02-13T19:10:05.971Z,5.50
2024-02-13T19:12:34.045Z,4.88
2024-02-13T19:15:02.728Z,5.43
2024-02-13T19:17:30.820Z,4.55
2024-02-13T19:19:57.828Z,5.45
2024-02-13T19:22:27.141Z,6.65
2024-02-13T19:24:56.233Z,8.15
2024-02-13T19:27:25.021Z,8.50
2024-02-13T19:29:53.928Z,11.00
2024-02-13T19:32:21.091Z,9.68
2024-02-13T19:34:53.085Z,8.70
2024-02-13T19:37:22.433Z,9.13
2024-02-13T19:39:51.231Z,7.65
2024-02-13T19:42:18.404Z,7.50
2024-02-13T19:44:48.840Z,11.90
2024-02-13T19:47:17.787Z,11.10
2024-02-13T19:49:44.787Z,9.30
2024-02-13T19:52:13.670Z,8.77
2024-02-13T19:54:40.719Z,7.55
2024-02-13T19:57:07.656Z,7.30
2024-02-13T19:59:35.290Z,8.57
2024-02-13T20:02:02.643Z,8.10
2024-02-13T20:04:30.767Z,9.45
2024-02-13T20:07:01.065Z,9.75
2024-02-13T20:09:28.860Z,9.98
2024-02-13T20:11:55.836Z,10.80
2024-02-13T20:14:22.811Z,10.68
2024-02-13T20:16:50.538Z,7.72
2024-02-13T20:19:17.805Z,9.23
2024-02-13T20:24:44.715Z,8.23
2024-02-13T20:27:11.687Z,7.75
2024-02-13T20:29:38.740Z,7.25
2024-02-13T20:32:05.887Z,6.43
2024-02-13T20:34:32.965Z,6.03
2024-02-13T20:37:04.574Z,5.40
2024-02-13T20:39:31.839Z,6.03
2024-02-13T20:42:00.109Z,5.40
2024-02-13T20:44:28.896Z,5.32
2024-02-13T20:46:57.864Z,7.93
2024-02-13T20:49:25.822Z,5.95
2024-02-13T20:51:52.922Z,4.88
2024-02-13T20:54:20.177Z,4.28
2024-02-13T20:56:48.353Z,4.82
2024-02-13T20:59:15.847Z,3.88
2024-02-13T21:01:43.618Z,4.75
2024-02-13T21:04:11.243Z,4.28
2024-02-13T21:06:42.335Z,4.53
2024-02-13T21:09:11.463Z,4.72
2024-02-13T21:11:38.517Z,3.35
2024-02-13T21:14:05.607Z,3.92
2024-02-13T21:16:34.497Z,3.85
2024-02-13T21:19:02.643Z,4.30
2024-02-13T21:21:48.409Z,4.25
2024-02-13T21:24:15.470Z,3.65
2024-02-13T21:26:42.627Z,4.47
2024-02-13T21:29:10.242Z,6.68
2024-02-13T21:31:37.932Z,9.40
2024-02-13T21:34:07.974Z,8.13
2024-02-13T21:36:36.198Z,4.72
2024-02-13T21:39:09.145Z,5.10
2024-02-13T21:41:37.041Z,4.35
2024-02-13T21:44:04.938Z,3.63
2024-02-13T21:46:32.672Z,3.05
2024-02-13T21:49:00.200Z,3.30
2024-02-13T21:51:27.342Z,3.53
2024-02-13T21:53:54.296Z,3.47
2024-02-13T21:56:23.256Z,2.97
2024-02-13T21:58:51.432Z,3.30
2024-02-13T22:01:18.442Z,3.83
2024-02-13T22:03:45.452Z,3.47
2024-02-13T22:06:14.853Z,3.05
2024-02-13T22:08:43.936Z,3.70
2024-02-13T22:11:11.075Z,3.67
2024-02-13T22:13:38.049Z,3.00
2024-02-13T22:16:05.498Z,3.03
2024-02-13T22:18:32.793Z,2.45
2024-02-13T22:20:59.917Z,3.03
2024-02-13T22:23:27.151Z,2.10
2024-02-13T22:25:57.993Z,2.60
2024-02-13T22:28:24.979Z,3.28
2024-02-13T22:30:51.848Z,2.92
2024-02-13T22:33:18.955Z,3.83
2024-02-13T22:35:45.969Z,3.03
2024-02-13T22:38:12.945Z,4.78
2024-02-13T22:40:39.886Z,3.80
2024-02-13T22:43:06.841Z,4.25
2024-02-13T22:45:34.091Z,4.68
2024-02-13T22:48:03.036Z,4.55
2024-02-13T22:50:30.717Z,5.30
2024-02-13T22:52:59.963Z,4.80
2024-02-13T22:55:30.195Z,5.07
2024-02-13T22:57:58.600Z,4.75
2024-02-13T23:00:44.477Z,5.32
2024-02-13T23:03:14.082Z,8.82
2024-02-13T23:05:48.364Z,8.82
2024-02-13T23:08:16.920Z,16.30
2024-02-13T23:10:44.103Z,27.50
2024-02-13T23:13:12.257Z,14.77
2024-02-13T23:15:39.382Z,17.67
2024-02-13T23:18:06.554Z,40.53
2024-02-13T23:20:33.521Z,28.17
2024-02-13T23:23:00.866Z,16.73
2024-02-13T23:25:27.863Z,27.85
2024-02-13T23:27:55.440Z,14.40
2024-02-13T23:30:23.043Z,6.97
2024-02-13T23:32:50.595Z,7.18
2024-02-13T23:35:18.632Z,7.03
2024-02-13T23:37:47.198Z,6.07
2024-02-13T23:40:19.517Z,5.93
2024-02-13T23:42:50.460Z,8.82
2024-02-13T23:45:17.980Z,14.93
2024-02-13T23:47:45.512Z,11.38
2024-02-13T23:50:12.898Z,6.50
2024-02-13T23:52:39.863Z,6.22
2024-02-13T23:55:07.459Z,8.25
2024-02-13T23:57:34.483Z,5.85
